Terminal Aerodrome Forecast
Issued by NWS

Current Version | Previous Version | Graphics & Text | Print | Product List | Glossary On
Versions: 1 2 3 4 5 6 7 8 9 10 11 12 13
000
FTUS41 KPBZ 260319 AAA
TAFMGW
TAF AMD
KMGW 260319Z 2603/2624 VRB03KT P6SM OVC100
      TEMPO 2603/2606 BKN025
     FM260800 02005KT P6SM OVC025
     FM261400 04006KT P6SM BKN050=

USA.gov is the U.S. government's official web portal to all federal, state and local government web resources and services.